首页
METAR-TAF:

METAR-TAF

机场 :

巴克烏, 罗马尼亚

纬度: 46-35N, 经度: 026-58E, 海拔: 184米

当前天气观测

该预报发布于33分钟前的08:00 UTC
风速2节,风向多变
温度 24°C
湿度 57%
气压 1017 hPa
能见度10公里或以上
少量云层高于6500英尺

METAR: LRBC 190800Z VRB02KT 9999 FEW065 24/15 Q1017

时间: 11:33 (08:33 UTC)

预报

该预报发布于3小时和33分钟前的05:00 UTC
预报有效从19日的 06点(UTC)到 19日的 15点(UTC)
风速4节,风向多变
能见度10公里或以上
散云层高于4500英尺
短暂存在
从 19日的 11点(UTC)到 19日的 14点(UTC)
散云层高于4000英尺, 积雨云.
多云层高于6000英尺
几率 30% :
短暂存在
从 19日的 12点(UTC)到 19日的 14点(UTC)
雷暴, 小雨

TAF: LRBC 190500Z 1906/1915 VRB04KT 9999 SCT045 TEMPO 1911/1914 SCT040CB BKN060 PROB30 TEMPO 1912/1914 -TSRA

超过4000个机场的气象观测和天气预报(METAR&TAF报告)。

可查询的气象台以黄色和红色小点在地图上表示。

将鼠标移到小点上方,可查看气象台名称。

然后点击查看天气观测和预报。

如需切换地图:点击带黑十字的绿色按钮放大地图;点击带横线的绿色按钮缩小地图;或者点击绿色箭头查看邻近地区的地图。


METAR-TAF: